sensor_id;sensor_type;location;lat;lon;timestamp;temperature;humidity
9919;DHT22;4998;51.024;13.828;2022-12-10T00:00:48;6.20;87.50
9919;DHT22;4998;51.024;13.828;2022-12-10T00:03:15;6.20;87.80
9919;DHT22;4998;51.024;13.828;2022-12-10T00:05:42;6.20;87.70
9919;DHT22;4998;51.024;13.828;2022-12-10T00:08:10;6.20;87.70
9919;DHT22;4998;51.024;13.828;2022-12-10T00:10:39;6.20;87.60
9919;DHT22;4998;51.024;13.828;2022-12-10T00:13:08;6.20;87.70
9919;DHT22;4998;51.024;13.828;2022-12-10T00:15:35;6.20;87.80
9919;DHT22;4998;51.024;13.828;2022-12-10T00:18:02;6.20;87.70
9919;DHT22;4998;51.024;13.828;2022-12-10T00:20:30;6.20;87.80
9919;DHT22;4998;51.024;13.828;2022-12-10T00:22:57;6.20;87.70
9919;DHT22;4998;51.024;13.828;2022-12-10T00:25:24;6.20;87.90
9919;DHT22;4998;51.024;13.828;2022-12-10T00:27:51;6.20;87.80
9919;DHT22;4998;51.024;13.828;2022-12-10T00:30:21;6.20;88.00
9919;DHT22;4998;51.024;13.828;2022-12-10T00:32:49;6.20;88.10
9919;DHT22;4998;51.024;13.828;2022-12-10T00:35:16;6.10;87.90
9919;DHT22;4998;51.024;13.828;2022-12-10T00:37:44;6.20;88.00
9919;DHT22;4998;51.024;13.828;2022-12-10T00:40:12;6.20;88.00
9919;DHT22;4998;51.024;13.828;2022-12-10T00:42:39;6.10;87.90
9919;DHT22;4998;51.024;13.828;2022-12-10T00:45:09;6.10;87.90
9919;DHT22;4998;51.024;13.828;2022-12-10T00:47:38;6.20;88.00
9919;DHT22;4998;51.024;13.828;2022-12-10T00:50:05;6.10;87.80
9919;DHT22;4998;51.024;13.828;2022-12-10T00:52:32;6.10;87.90
9919;DHT22;4998;51.024;13.828;2022-12-10T00:54:59;6.10;87.90
9919;DHT22;4998;51.024;13.828;2022-12-10T00:57:26;6.10;88.10
9919;DHT22;4998;51.024;13.828;2022-12-10T00:59:53;6.10;88.20
9919;DHT22;4998;51.024;13.828;2022-12-10T01:02:20;6.10;88.40
9919;DHT22;4998;51.024;13.828;2022-12-10T01:04:52;6.10;88.40
9919;DHT22;4998;51.024;13.828;2022-12-10T01:07:19;6.00;88.50
9919;DHT22;4998;51.024;13.828;2022-12-10T01:09:46;6.10;88.40
9919;DHT22;4998;51.024;13.828;2022-12-10T01:12:13;6.10;88.40
9919;DHT22;4998;51.024;13.828;2022-12-10T01:14:40;6.10;88.30
9919;DHT22;4998;51.024;13.828;2022-12-10T01:17:07;6.00;88.10
9919;DHT22;4998;51.024;13.828;2022-12-10T01:19:34;6.00;89.00
9919;DHT22;4998;51.024;13.828;2022-12-10T01:22:03;6.00;88.20
9919;DHT22;4998;51.024;13.828;2022-12-10T01:24:30;6.00;88.40
9919;DHT22;4998;51.024;13.828;2022-12-10T01:26:58;6.00;88.40
9919;DHT22;4998;51.024;13.828;2022-12-10T01:29:26;6.00;88.50
9919;DHT22;4998;51.024;13.828;2022-12-10T01:31:55;6.00;88.40
9919;DHT22;4998;51.024;13.828;2022-12-10T01:34:23;6.00;88.50
9919;DHT22;4998;51.024;13.828;2022-12-10T01:36:52;5.90;88.50
9919;DHT22;4998;51.024;13.828;2022-12-10T01:39:22;5.90;88.60
9919;DHT22;4998;51.024;13.828;2022-12-10T01:41:51;5.90;88.80
9919;DHT22;4998;51.024;13.828;2022-12-10T01:44:58;5.90;88.60
9919;DHT22;4998;51.024;13.828;2022-12-10T01:47:25;5.90;88.80
9919;DHT22;4998;51.024;13.828;2022-12-10T01:49:52;5.90;88.70
9919;DHT22;4998;51.024;13.828;2022-12-10T01:52:19;5.80;89.50
9919;DHT22;4998;51.024;13.828;2022-12-10T01:54:48;5.80;88.80
9919;DHT22;4998;51.024;13.828;2022-12-10T01:57:18;5.80;89.00
9919;DHT22;4998;51.024;13.828;2022-12-10T01:59:47;5.80;89.10
9919;DHT22;4998;51.024;13.828;2022-12-10T02:02:22;5.80;89.30
9919;DHT22;4998;51.024;13.828;2022-12-10T02:05:01;5.80;89.40
9919;DHT22;4998;51.024;13.828;2022-12-10T02:07:39;5.80;89.40
9919;DHT22;4998;51.024;13.828;2022-12-10T02:10:23;5.80;89.40
9919;DHT22;4998;51.024;13.828;2022-12-10T02:12:57;5.90;89.50
9919;DHT22;4998;51.024;13.828;2022-12-10T02:15:30;5.80;89.40
9919;DHT22;4998;51.024;13.828;2022-12-10T02:18:00;5.90;89.50
9919;DHT22;4998;51.024;13.828;2022-12-10T02:20:32;5.80;89.20
9919;DHT22;4998;51.024;13.828;2022-12-10T02:23:03;5.90;89.30
9919;DHT22;4998;51.024;13.828;2022-12-10T02:25:36;5.80;89.30
9919;DHT22;4998;51.024;13.828;2022-12-10T02:28:11;5.80;89.40
9919;DHT22;4998;51.024;13.828;2022-12-10T02:30:42;5.90;89.50
9919;DHT22;4998;51.024;13.828;2022-12-10T02:33:12;5.90;89.50
9919;DHT22;4998;51.024;13.828;2022-12-10T02:35:41;5.90;89.40
9919;DHT22;4998;51.024;13.828;2022-12-10T02:38:11;5.90;89.40
9919;DHT22;4998;51.024;13.828;2022-12-10T02:40:43;5.80;89.30
9919;DHT22;4998;51.024;13.828;2022-12-10T02:43:12;5.80;89.30
9919;DHT22;4998;51.024;13.828;2022-12-10T02:45:42;5.80;89.30
9919;DHT22;4998;51.024;13.828;2022-12-10T02:48:11;5.80;89.40
9919;DHT22;4998;51.024;13.828;2022-12-10T02:50:38;5.80;89.40
9919;DHT22;4998;51.024;13.828;2022-12-10T02:53:05;5.80;89.50
9919;DHT22;4998;51.024;13.828;2022-12-10T02:55:46;5.90;89.50
9919;DHT22;4998;51.024;13.828;2022-12-10T02:58:22;5.90;89.60
9919;DHT22;4998;51.024;13.828;2022-12-10T03:00:58;5.90;89.30
9919;DHT22;4998;51.024;13.828;2022-12-10T03:03:34;5.90;89.30
9919;DHT22;4998;51.024;13.828;2022-12-10T03:06:09;5.90;89.20
9919;DHT22;4998;51.024;13.828;2022-12-10T03:08:41;5.90;89.20
9919;DHT22;4998;51.024;13.828;2022-12-10T03:11:13;5.90;89.20
9919;DHT22;4998;51.024;13.828;2022-12-10T03:13:47;5.90;89.10
9919;DHT22;4998;51.024;13.828;2022-12-10T03:16:19;5.90;89.10
9919;DHT22;4998;51.024;13.828;2022-12-10T03:18:51;5.90;88.80
9919;DHT22;4998;51.024;13.828;2022-12-10T03:21:19;5.90;88.90
9919;DHT22;4998;51.024;13.828;2022-12-10T03:23:48;5.90;88.90
9919;DHT22;4998;51.024;13.828;2022-12-10T03:26:16;5.90;88.90
9919;DHT22;4998;51.024;13.828;2022-12-10T03:28:46;5.90;88.90
9919;DHT22;4998;51.024;13.828;2022-12-10T03:31:18;5.90;88.90
9919;DHT22;4998;51.024;13.828;2022-12-10T03:33:46;5.90;88.90
9919;DHT22;4998;51.024;13.828;2022-12-10T03:36:15;5.90;88.90
9919;DHT22;4998;51.024;13.828;2022-12-10T03:38:43;5.90;88.80
9919;DHT22;4998;51.024;13.828;2022-12-10T03:41:10;5.90;88.80
9919;DHT22;4998;51.024;13.828;2022-12-10T03:43:50;5.90;88.50
9919;DHT22;4998;51.024;13.828;2022-12-10T03:46:18;5.80;89.00
9919;DHT22;4998;51.024;13.828;2022-12-10T03:48:46;5.90;89.00
9919;DHT22;4998;51.024;13.828;2022-12-10T03:51:13;5.90;89.00
9919;DHT22;4998;51.024;13.828;2022-12-10T03:53:40;5.90;88.90
9919;DHT22;4998;51.024;13.828;2022-12-10T03:56:09;5.90;88.80
9919;DHT22;4998;51.024;13.828;2022-12-10T03:58:36;5.90;88.80
9919;DHT22;4998;51.024;13.828;2022-12-10T04:01:03;5.90;88.80
9919;DHT22;4998;51.024;13.828;2022-12-10T04:03:34;5.90;88.80
9919;DHT22;4998;51.024;13.828;2022-12-10T04:06:02;5.90;89.10
9919;DHT22;4998;51.024;13.828;2022-12-10T04:08:29;5.90;89.10
9919;DHT22;4998;51.024;13.828;2022-12-10T04:11:02;5.80;89.00
9919;DHT22;4998;51.024;13.828;2022-12-10T04:13:31;5.90;89.30
9919;DHT22;4998;51.024;13.828;2022-12-10T04:16:16;5.90;89.30
9919;DHT22;4998;51.024;13.828;2022-12-10T04:18:58;5.90;89.30
9919;DHT22;4998;51.024;13.828;2022-12-10T04:21:26;5.90;89.30
9919;DHT22;4998;51.024;13.828;2022-12-10T04:24:15;5.90;89.20
9919;DHT22;4998;51.024;13.828;2022-12-10T04:27:04;6.00;89.30
9919;DHT22;4998;51.024;13.828;2022-12-10T04:29:31;6.00;89.20
9919;DHT22;4998;51.024;13.828;2022-12-10T04:31:59;5.90;89.10
9919;DHT22;4998;51.024;13.828;2022-12-10T04:34:27;5.90;89.20
9919;DHT22;4998;51.024;13.828;2022-12-10T04:36:54;5.90;89.30
9919;DHT22;4998;51.024;13.828;2022-12-10T04:39:23;5.90;89.30
9919;DHT22;4998;51.024;13.828;2022-12-10T04:41:51;6.00;89.50
9919;DHT22;4998;51.024;13.828;2022-12-10T04:44:19;6.00;89.40
9919;DHT22;4998;51.024;13.828;2022-12-10T04:46:46;6.00;89.40
9919;DHT22;4998;51.024;13.828;2022-12-10T04:49:14;6.00;89.50
9919;DHT22;4998;51.024;13.828;2022-12-10T04:51:43;6.00;89.50
9919;DHT22;4998;51.024;13.828;2022-12-10T04:54:13;6.00;89.60
9919;DHT22;4998;51.024;13.828;2022-12-10T04:56:40;6.00;89.50
9919;DHT22;4998;51.024;13.828;2022-12-10T04:59:08;6.00;89.50
9919;DHT22;4998;51.024;13.828;2022-12-10T05:01:36;6.10;89.60
9919;DHT22;4998;51.024;13.828;2022-12-10T05:04:05;6.10;89.70
9919;DHT22;4998;51.024;13.828;2022-12-10T05:06:33;6.10;89.70
9919;DHT22;4998;51.024;13.828;2022-12-10T05:09:02;6.10;89.70
9919;DHT22;4998;51.024;13.828;2022-12-10T05:11:31;6.10;89.70
9919;DHT22;4998;51.024;13.828;2022-12-10T05:13:58;6.10;89.70
9919;DHT22;4998;51.024;13.828;2022-12-10T05:16:28;6.20;89.50
9919;DHT22;4998;51.024;13.828;2022-12-10T05:18:56;6.20;89.30
9919;DHT22;4998;51.024;13.828;2022-12-10T05:21:25;6.20;89.20
9919;DHT22;4998;51.024;13.828;2022-12-10T05:24:15;6.20;89.30
9919;DHT22;4998;51.024;13.828;2022-12-10T05:26:42;6.10;89.10
9919;DHT22;4998;51.024;13.828;2022-12-10T05:29:11;6.10;89.00
9919;DHT22;4998;51.024;13.828;2022-12-10T05:31:38;6.10;89.10
9919;DHT22;4998;51.024;13.828;2022-12-10T05:34:05;6.10;89.10
9919;DHT22;4998;51.024;13.828;2022-12-10T05:36:33;6.10;89.30
9919;DHT22;4998;51.024;13.828;2022-12-10T05:39:00;6.10;89.30
9919;DHT22;4998;51.024;13.828;2022-12-10T05:41:30;6.10;89.30
9919;DHT22;4998;51.024;13.828;2022-12-10T05:43:58;6.00;89.30
9919;DHT22;4998;51.024;13.828;2022-12-10T05:46:27;6.00;89.50
9919;DHT22;4998;51.024;13.828;2022-12-10T05:48:55;6.00;89.60
9919;DHT22;4998;51.024;13.828;2022-12-10T05:51:24;6.00;89.60
9919;DHT22;4998;51.024;13.828;2022-12-10T05:53:52;6.00;89.60
9919;DHT22;4998;51.024;13.828;2022-12-10T05:56:21;6.00;89.60
9919;DHT22;4998;51.024;13.828;2022-12-10T05:58:52;6.00;89.60
9919;DHT22;4998;51.024;13.828;2022-12-10T06:01:21;6.00;89.70
9919;DHT22;4998;51.024;13.828;2022-12-10T06:03:49;6.00;89.70
9919;DHT22;4998;51.024;13.828;2022-12-10T06:06:20;5.90;89.60
9919;DHT22;4998;51.024;13.828;2022-12-10T06:08:47;6.00;89.80
9919;DHT22;4998;51.024;13.828;2022-12-10T06:11:14;6.00;89.70
9919;DHT22;4998;51.024;13.828;2022-12-10T06:13:41;5.90;89.60
9919;DHT22;4998;51.024;13.828;2022-12-10T06:16:12;5.90;89.70
9919;DHT22;4998;51.024;13.828;2022-12-10T06:18:39;5.90;89.90
9919;DHT22;4998;51.024;13.828;2022-12-10T06:21:08;5.90;89.90
9919;DHT22;4998;51.024;13.828;2022-12-10T06:23:36;5.90;90.00
9919;DHT22;4998;51.024;13.828;2022-12-10T06:26:04;5.90;90.00
9919;DHT22;4998;51.024;13.828;2022-12-10T06:28:31;5.90;90.00
9919;DHT22;4998;51.024;13.828;2022-12-10T06:30:58;5.90;90.00
9919;DHT22;4998;51.024;13.828;2022-12-10T06:33:27;5.90;90.00
9919;DHT22;4998;51.024;13.828;2022-12-10T06:35:54;5.90;90.10
9919;DHT22;4998;51.024;13.828;2022-12-10T06:38:21;5.90;90.10
9919;DHT22;4998;51.024;13.828;2022-12-10T06:40:48;5.90;90.10
9919;DHT22;4998;51.024;13.828;2022-12-10T06:43:16;5.90;90.00
9919;DHT22;4998;51.024;13.828;2022-12-10T06:45:43;5.90;90.00
9919;DHT22;4998;51.024;13.828;2022-12-10T06:48:10;5.90;90.00
9919;DHT22;4998;51.024;13.828;2022-12-10T06:50:38;5.90;90.10
9919;DHT22;4998;51.024;13.828;2022-12-10T06:53:06;5.90;90.10
9919;DHT22;4998;51.024;13.828;2022-12-10T06:55:33;5.90;90.00
9919;DHT22;4998;51.024;13.828;2022-12-10T06:58:02;5.90;90.00
9919;DHT22;4998;51.024;13.828;2022-12-10T07:00:29;5.90;90.00
9919;DHT22;4998;51.024;13.828;2022-12-10T07:02:56;5.90;90.00
9919;DHT22;4998;51.024;13.828;2022-12-10T07:05:23;5.90;90.10
9919;DHT22;4998;51.024;13.828;2022-12-10T07:07:52;5.80;90.10
9919;DHT22;4998;51.024;13.828;2022-12-10T07:10:19;5.90;90.20
9919;DHT22;4998;51.024;13.828;2022-12-10T07:12:46;5.90;90.20
9919;DHT22;4998;51.024;13.828;2022-12-10T07:15:13;5.90;90.20
9919;DHT22;4998;51.024;13.828;2022-12-10T07:17:40;5.80;90.30
9919;DHT22;4998;51.024;13.828;2022-12-10T07:20:08;5.90;90.30
9919;DHT22;4998;51.024;13.828;2022-12-10T07:22:37;5.90;90.40
9919;DHT22;4998;51.024;13.828;2022-12-10T07:25:06;5.90;90.40
9919;DHT22;4998;51.024;13.828;2022-12-10T07:27:34;5.90;90.30
9919;DHT22;4998;51.024;13.828;2022-12-10T07:30:01;5.90;90.30
9919;DHT22;4998;51.024;13.828;2022-12-10T07:32:28;5.90;90.30
9919;DHT22;4998;51.024;13.828;2022-12-10T07:34:55;5.90;90.30
9919;DHT22;4998;51.024;13.828;2022-12-10T07:37:22;5.90;90.30
9919;DHT22;4998;51.024;13.828;2022-12-10T07:39:49;5.90;90.30
9919;DHT22;4998;51.024;13.828;2022-12-10T07:42:17;5.90;90.30
9919;DHT22;4998;51.024;13.828;2022-12-10T07:44:44;5.90;90.30
9919;DHT22;4998;51.024;13.828;2022-12-10T07:47:11;5.90;90.40
9919;DHT22;4998;51.024;13.828;2022-12-10T07:49:38;5.90;90.30
9919;DHT22;4998;51.024;13.828;2022-12-10T07:52:05;5.90;90.30
9919;DHT22;4998;51.024;13.828;2022-12-10T07:54:32;5.90;90.70
9919;DHT22;4998;51.024;13.828;2022-12-10T07:56:59;5.90;90.30
9919;DHT22;4998;51.024;13.828;2022-12-10T07:59:27;5.90;90.40
9919;DHT22;4998;51.024;13.828;2022-12-10T08:01:54;5.90;90.50
9919;DHT22;4998;51.024;13.828;2022-12-10T08:04:21;5.90;90.40
9919;DHT22;4998;51.024;13.828;2022-12-10T08:06:48;5.90;90.50
9919;DHT22;4998;51.024;13.828;2022-12-10T08:09:15;5.90;90.50
9919;DHT22;4998;51.024;13.828;2022-12-10T08:11:42;5.90;90.50
9919;DHT22;4998;51.024;13.828;2022-12-10T08:14:09;5.90;90.60
9919;DHT22;4998;51.024;13.828;2022-12-10T08:16:38;5.90;90.60
9919;DHT22;4998;51.024;13.828;2022-12-10T08:19:04;5.90;90.60
9919;DHT22;4998;51.024;13.828;2022-12-10T08:21:32;5.90;90.60
9919;DHT22;4998;51.024;13.828;2022-12-10T08:24:00;5.90;90.70
9919;DHT22;4998;51.024;13.828;2022-12-10T08:26:30;5.90;90.70
9919;DHT22;4998;51.024;13.828;2022-12-10T08:28:58;5.90;90.70
9919;DHT22;4998;51.024;13.828;2022-12-10T08:31:26;6.00;90.70
9919;DHT22;4998;51.024;13.828;2022-12-10T08:33:55;5.90;90.60
9919;DHT22;4998;51.024;13.828;2022-12-10T08:36:22;5.90;90.60
9919;DHT22;4998;51.024;13.828;2022-12-10T08:38:50;5.90;90.60
9919;DHT22;4998;51.024;13.828;2022-12-10T08:41:19;5.90;90.70
9919;DHT22;4998;51.024;13.828;2022-12-10T08:43:47;5.90;90.70
9919;DHT22;4998;51.024;13.828;2022-12-10T08:46:15;5.90;90.80
9919;DHT22;4998;51.024;13.828;2022-12-10T08:48:42;5.90;90.90
9919;DHT22;4998;51.024;13.828;2022-12-10T08:51:13;5.90;90.90
9919;DHT22;4998;51.024;13.828;2022-12-10T08:53:40;5.90;90.90
9919;DHT22;4998;51.024;13.828;2022-12-10T08:56:07;5.90;90.90
9919;DHT22;4998;51.024;13.828;2022-12-10T08:58:36;5.90;91.00
9919;DHT22;4998;51.024;13.828;2022-12-10T09:01:06;5.90;91.10
9919;DHT22;4998;51.024;13.828;2022-12-10T09:03:33;5.90;91.10
9919;DHT22;4998;51.024;13.828;2022-12-10T09:06:03;5.90;91.10
9919;DHT22;4998;51.024;13.828;2022-12-10T09:08:32;6.00;91.20
9919;DHT22;4998;51.024;13.828;2022-12-10T09:11:04;6.00;91.10
9919;DHT22;4998;51.024;13.828;2022-12-10T09:13:31;6.00;91.10
9919;DHT22;4998;51.024;13.828;2022-12-10T09:15:58;6.00;90.90
9919;DHT22;4998;51.024;13.828;2022-12-10T09:18:25;6.00;90.90
9919;DHT22;4998;51.024;13.828;2022-12-10T09:20:52;6.00;90.90
9919;DHT22;4998;51.024;13.828;2022-12-10T09:23:19;6.00;90.80
9919;DHT22;4998;51.024;13.828;2022-12-10T09:25:47;6.00;90.90
9919;DHT22;4998;51.024;13.828;2022-12-10T09:28:14;6.00;90.90
9919;DHT22;4998;51.024;13.828;2022-12-10T09:30:42;6.00;90.90
9919;DHT22;4998;51.024;13.828;2022-12-10T09:33:09;6.00;90.80
9919;DHT22;4998;51.024;13.828;2022-12-10T09:35:39;6.00;90.80
9919;DHT22;4998;51.024;13.828;2022-12-10T09:38:06;6.00;90.80
9919;DHT22;4998;51.024;13.828;2022-12-10T09:40:40;6.00;90.80
9919;DHT22;4998;51.024;13.828;2022-12-10T09:43:17;6.00;90.80
9919;DHT22;4998;51.024;13.828;2022-12-10T09:45:52;6.00;90.80
9919;DHT22;4998;51.024;13.828;2022-12-10T09:48:27;6.00;90.80
9919;DHT22;4998;51.024;13.828;2022-12-10T09:51:01;6.00;90.80
9919;DHT22;4998;51.024;13.828;2022-12-10T09:53:31;6.00;90.80
9919;DHT22;4998;51.024;13.828;2022-12-10T09:55:59;6.00;90.70
9919;DHT22;4998;51.024;13.828;2022-12-10T09:58:28;6.00;90.70
9919;DHT22;4998;51.024;13.828;2022-12-10T10:00:58;6.00;90.70
9919;DHT22;4998;51.024;13.828;2022-12-10T10:03:25;6.00;90.80
9919;DHT22;4998;51.024;13.828;2022-12-10T10:05:54;6.00;90.80
9919;DHT22;4998;51.024;13.828;2022-12-10T10:08:28;6.00;90.80
9919;DHT22;4998;51.024;13.828;2022-12-10T10:10:56;6.00;90.90
9919;DHT22;4998;51.024;13.828;2022-12-10T10:13:31;6.00;90.90
9919;DHT22;4998;51.024;13.828;2022-12-10T10:16:13;6.00;91.00
9919;DHT22;4998;51.024;13.828;2022-12-10T10:18:45;6.10;90.90
9919;DHT22;4998;51.024;13.828;2022-12-10T10:21:19;6.00;90.80
9919;DHT22;4998;51.024;13.828;2022-12-10T10:23:47;6.10;90.80
9919;DHT22;4998;51.024;13.828;2022-12-10T10:26:14;6.10;90.80
9919;DHT22;4998;51.024;13.828;2022-12-10T10:28:43;6.10;90.70
9919;DHT22;4998;51.024;13.828;2022-12-10T10:31:19;6.00;90.60
9919;DHT22;4998;51.024;13.828;2022-12-10T10:33:51;6.00;90.70
9919;DHT22;4998;51.024;13.828;2022-12-10T10:36:24;6.00;90.70
9919;DHT22;4998;51.024;13.828;2022-12-10T10:38:52;6.00;90.70
9919;DHT22;4998;51.024;13.828;2022-12-10T10:41:19;6.00;90.70
9919;DHT22;4998;51.024;13.828;2022-12-10T10:43:53;6.00;90.60
9919;DHT22;4998;51.024;13.828;2022-12-10T10:46:26;6.00;90.50
9919;DHT22;4998;51.024;13.828;2022-12-10T10:49:13;6.00;90.40
9919;DHT22;4998;51.024;13.828;2022-12-10T10:51:42;5.90;90.50
9919;DHT22;4998;51.024;13.828;2022-12-10T10:54:11;5.80;90.50
9919;DHT22;4998;51.024;13.828;2022-12-10T10:56:40;5.80;90.60
9919;DHT22;4998;51.024;13.828;2022-12-10T10:59:25;5.80;90.70
9919;DHT22;4998;51.024;13.828;2022-12-10T11:01:59;5.80;90.80
9919;DHT22;4998;51.024;13.828;2022-12-10T11:04:30;5.70;90.70
9919;DHT22;4998;51.024;13.828;2022-12-10T11:07:04;5.70;90.80
9919;DHT22;4998;51.024;13.828;2022-12-10T11:09:33;5.70;90.90
9919;DHT22;4998;51.024;13.828;2022-12-10T11:12:02;5.80;91.00
9919;DHT22;4998;51.024;13.828;2022-12-10T11:14:33;5.80;91.10
9919;DHT22;4998;51.024;13.828;2022-12-10T11:17:12;5.70;91.10
9919;DHT22;4998;51.024;13.828;2022-12-10T11:19:45;5.80;91.10
9919;DHT22;4998;51.024;13.828;2022-12-10T11:22:21;5.80;91.10
9919;DHT22;4998;51.024;13.828;2022-12-10T11:24:49;5.90;91.20
9919;DHT22;4998;51.024;13.828;2022-12-10T11:27:31;5.80;91.20
9919;DHT22;4998;51.024;13.828;2022-12-10T11:30:04;5.90;91.30
9919;DHT22;4998;51.024;13.828;2022-12-10T11:32:44;5.90;91.20
9919;DHT22;4998;51.024;13.828;2022-12-10T11:35:18;5.90;91.10
9919;DHT22;4998;51.024;13.828;2022-12-10T11:37:51;5.90;91.10
9919;DHT22;4998;51.024;13.828;2022-12-10T11:40:34;5.90;91.00
9919;DHT22;4998;51.024;13.828;2022-12-10T11:43:16;5.90;91.00
9919;DHT22;4998;51.024;13.828;2022-12-10T11:45:57;5.90;91.00
9919;DHT22;4998;51.024;13.828;2022-12-10T11:48:45;5.80;90.90
9919;DHT22;4998;51.024;13.828;2022-12-10T11:51:21;5.80;90.90
9919;DHT22;4998;51.024;13.828;2022-12-10T11:54:00;5.80;91.00
9919;DHT22;4998;51.024;13.828;2022-12-10T11:56:33;5.80;91.10
9919;DHT22;4998;51.024;13.828;2022-12-10T11:59:13;5.80;91.50
9919;DHT22;4998;51.024;13.828;2022-12-10T12:02:05;5.80;91.20
9919;DHT22;4998;51.024;13.828;2022-12-10T12:04:59;5.90;91.20
9919;DHT22;4998;51.024;13.828;2022-12-10T12:07:42;5.80;91.20
9919;DHT22;4998;51.024;13.828;2022-12-10T12:10:41;5.80;91.20
9919;DHT22;4998;51.024;13.828;2022-12-10T12:13:13;5.80;91.10
9919;DHT22;4998;51.024;13.828;2022-12-10T12:15:44;5.80;91.10
9919;DHT22;4998;51.024;13.828;2022-12-10T12:18:18;5.80;91.10
9919;DHT22;4998;51.024;13.828;2022-12-10T12:20:49;5.70;91.10
9919;DHT22;4998;51.024;13.828;2022-12-10T12:23:23;5.70;91.10
9919;DHT22;4998;51.024;13.828;2022-12-10T12:25:55;5.70;91.10
9919;DHT22;4998;51.024;13.828;2022-12-10T12:28:24;5.60;91.00
9919;DHT22;4998;51.024;13.828;2022-12-10T12:30:59;5.60;91.10
9919;DHT22;4998;51.024;13.828;2022-12-10T12:33:32;5.60;91.20
9919;DHT22;4998;51.024;13.828;2022-12-10T12:36:05;5.50;91.20
9919;DHT22;4998;51.024;13.828;2022-12-10T12:38:39;5.50;91.20
9919;DHT22;4998;51.024;13.828;2022-12-10T12:41:15;5.50;91.30
9919;DHT22;4998;51.024;13.828;2022-12-10T12:43:48;5.40;91.40
9919;DHT22;4998;51.024;13.828;2022-12-10T12:46:24;5.40;91.40
9919;DHT22;4998;51.024;13.828;2022-12-10T12:48:57;5.40;91.30
9919;DHT22;4998;51.024;13.828;2022-12-10T12:51:29;5.30;91.30
9919;DHT22;4998;51.024;13.828;2022-12-10T12:53:59;5.30;91.40
9919;DHT22;4998;51.024;13.828;2022-12-10T12:56:40;5.30;91.40
9919;DHT22;4998;51.024;13.828;2022-12-10T12:59:26;5.20;91.60
9919;DHT22;4998;51.024;13.828;2022-12-10T13:02:02;5.20;91.70
9919;DHT22;4998;51.024;13.828;2022-12-10T13:04:35;5.20;91.70
9919;DHT22;4998;51.024;13.828;2022-12-10T13:07:11;5.20;92.20
9919;DHT22;4998;51.024;13.828;2022-12-10T13:10:18;5.20;92.10
9919;DHT22;4998;51.024;13.828;2022-12-10T13:12:50;5.20;92.20
9919;DHT22;4998;51.024;13.828;2022-12-10T13:15:20;5.30;92.30
9919;DHT22;4998;51.024;13.828;2022-12-10T13:18:18;5.30;92.30
9919;DHT22;4998;51.024;13.828;2022-12-10T13:20:50;5.30;92.20
9919;DHT22;4998;51.024;13.828;2022-12-10T13:23:47;5.30;92.10
9919;DHT22;4998;51.024;13.828;2022-12-10T13:26:25;5.40;92.20
9919;DHT22;4998;51.024;13.828;2022-12-10T13:28:54;5.30;92.10
9919;DHT22;4998;51.024;13.828;2022-12-10T13:31:33;5.30;92.00
9919;DHT22;4998;51.024;13.828;2022-12-10T13:37:16;5.40;92.10
9919;DHT22;4998;51.024;13.828;2022-12-10T13:39:54;5.40;92.10
9919;DHT22;4998;51.024;13.828;2022-12-10T13:42:31;5.40;92.00
9919;DHT22;4998;51.024;13.828;2022-12-10T13:45:32;5.40;92.00
9919;DHT22;4998;51.024;13.828;2022-12-10T13:51:21;5.40;92.00
9919;DHT22;4998;51.024;13.828;2022-12-10T13:54:16;5.40;92.00
9919;DHT22;4998;51.024;13.828;2022-12-10T13:56:51;5.40;92.00
9919;DHT22;4998;51.024;13.828;2022-12-10T13:59:30;5.50;92.00
9919;DHT22;4998;51.024;13.828;2022-12-10T14:02:26;5.40;92.00
9919;DHT22;4998;51.024;13.828;2022-12-10T14:08:03;5.50;92.00
9919;DHT22;4998;51.024;13.828;2022-12-10T14:10:33;5.50;91.80
9919;DHT22;4998;51.024;13.828;2022-12-10T14:13:02;5.50;91.90
9919;DHT22;4998;51.024;13.828;2022-12-10T14:15:30;5.40;91.80
9919;DHT22;4998;51.024;13.828;2022-12-10T14:18:02;5.40;91.80
9919;DHT22;4998;51.024;13.828;2022-12-10T14:20:31;5.50;91.90
9919;DHT22;4998;51.024;13.828;2022-12-10T14:23:03;5.40;92.00
9919;DHT22;4998;51.024;13.828;2022-12-10T14:25:46;5.50;92.10
9919;DHT22;4998;51.024;13.828;2022-12-10T14:28:15;5.50;92.10
9919;DHT22;4998;51.024;13.828;2022-12-10T14:30:45;5.50;92.10
9919;DHT22;4998;51.024;13.828;2022-12-10T14:33:16;5.50;92.00
9919;DHT22;4998;51.024;13.828;2022-12-10T14:35:47;5.50;91.90
9919;DHT22;4998;51.024;13.828;2022-12-10T14:38:18;5.50;91.80
9919;DHT22;4998;51.024;13.828;2022-12-10T14:40:48;5.50;91.70
9919;DHT22;4998;51.024;13.828;2022-12-10T14:43:17;5.50;91.70
9919;DHT22;4998;51.024;13.828;2022-12-10T14:45:47;5.50;91.70
9919;DHT22;4998;51.024;13.828;2022-12-10T14:48:17;5.40;91.60
9919;DHT22;4998;51.024;13.828;2022-12-10T14:50:45;5.40;91.60
9919;DHT22;4998;51.024;13.828;2022-12-10T14:53:14;5.40;91.70
9919;DHT22;4998;51.024;13.828;2022-12-10T14:55:42;5.30;91.80
9919;DHT22;4998;51.024;13.828;2022-12-10T14:58:14;5.30;91.80
9919;DHT22;4998;51.024;13.828;2022-12-10T15:00:45;5.30;92.00
9919;DHT22;4998;51.024;13.828;2022-12-10T15:03:27;5.30;91.90
9919;DHT22;4998;51.024;13.828;2022-12-10T15:05:55;5.30;91.90
9919;DHT22;4998;51.024;13.828;2022-12-10T15:08:24;5.30;91.80
9919;DHT22;4998;51.024;13.828;2022-12-10T15:10:54;5.30;91.80
9919;DHT22;4998;51.024;13.828;2022-12-10T15:13:32;5.30;91.80
9919;DHT22;4998;51.024;13.828;2022-12-10T15:16:00;5.20;91.70
9919;DHT22;4998;51.024;13.828;2022-12-10T15:18:29;5.20;91.70
9919;DHT22;4998;51.024;13.828;2022-12-10T15:21:05;5.20;91.80
9919;DHT22;4998;51.024;13.828;2022-12-10T15:23:34;5.20;91.90
9919;DHT22;4998;51.024;13.828;2022-12-10T15:26:10;5.20;91.80
9919;DHT22;4998;51.024;13.828;2022-12-10T15:28:43;5.20;92.00
9919;DHT22;4998;51.024;13.828;2022-12-10T15:31:13;5.20;91.90
9919;DHT22;4998;51.024;13.828;2022-12-10T15:33:44;5.20;92.00
9919;DHT22;4998;51.024;13.828;2022-12-10T15:36:19;5.20;92.00
9919;DHT22;4998;51.024;13.828;2022-12-10T15:38:47;5.20;92.10
9919;DHT22;4998;51.024;13.828;2022-12-10T15:41:33;5.20;92.10
9919;DHT22;4998;51.024;13.828;2022-12-10T15:44:14;5.20;92.20
9919;DHT22;4998;51.024;13.828;2022-12-10T15:46:47;5.30;92.20
9919;DHT22;4998;51.024;13.828;2022-12-10T15:49:15;5.30;92.20
9919;DHT22;4998;51.024;13.828;2022-12-10T15:51:42;5.30;92.10
9919;DHT22;4998;51.024;13.828;2022-12-10T15:54:20;5.30;92.00
9919;DHT22;4998;51.024;13.828;2022-12-10T15:56:48;5.40;92.10
9919;DHT22;4998;51.024;13.828;2022-12-10T15:59:16;5.30;92.00
9919;DHT22;4998;51.024;13.828;2022-12-10T16:01:45;5.40;92.00
9919;DHT22;4998;51.024;13.828;2022-12-10T16:04:12;5.30;92.00
9919;DHT22;4998;51.024;13.828;2022-12-10T16:06:40;5.30;91.90
9919;DHT22;4998;51.024;13.828;2022-12-10T16:09:08;5.30;91.90
9919;DHT22;4998;51.024;13.828;2022-12-10T16:11:36;5.30;92.10
9919;DHT22;4998;51.024;13.828;2022-12-10T16:14:03;5.20;92.00
9919;DHT22;4998;51.024;13.828;2022-12-10T16:16:33;5.30;92.10
9919;DHT22;4998;51.024;13.828;2022-12-10T16:19:00;5.30;92.20
9919;DHT22;4998;51.024;13.828;2022-12-10T16:21:27;5.40;92.20
9919;DHT22;4998;51.024;13.828;2022-12-10T16:23:54;5.30;92.20
9919;DHT22;4998;51.024;13.828;2022-12-10T16:26:22;5.30;92.10
9919;DHT22;4998;51.024;13.828;2022-12-10T16:28:50;5.40;92.20
9919;DHT22;4998;51.024;13.828;2022-12-10T16:31:19;5.40;92.10
9919;DHT22;4998;51.024;13.828;2022-12-10T16:33:48;5.40;92.10
9919;DHT22;4998;51.024;13.828;2022-12-10T16:36:17;5.40;92.10